createdAt,value
2023-12-18T00:00:36.374Z,30.47
2023-12-18T00:03:06.066Z,36.40
2023-12-18T00:05:34.787Z,37.83
2023-12-18T00:08:03.452Z,25.17
2023-12-18T00:10:32.616Z,26.03
2023-12-18T00:13:02.881Z,36.87
2023-12-18T00:15:31.662Z,26.53
2023-12-18T00:18:01.011Z,33.23
2023-12-18T00:20:30.152Z,27.47
2023-12-18T00:22:59.095Z,31.07
2023-12-18T00:25:27.893Z,25.87
2023-12-18T00:27:56.730Z,36.77
2023-12-18T00:30:26.984Z,19.97
2023-12-18T00:32:55.816Z,31.37
2023-12-18T00:35:24.529Z,27.87
2023-12-18T00:37:53.197Z,36.83
2023-12-18T00:40:22.008Z,26.57
2023-12-18T00:42:52.838Z,29.53
2023-12-18T00:45:21.533Z,32.60
2023-12-18T00:47:51.792Z,32.80
2023-12-18T00:50:20.622Z,29.83
2023-12-18T00:52:49.262Z,33.83
2023-12-18T00:55:17.982Z,33.20
2023-12-18T00:57:49.500Z,39.00
2023-12-18T01:00:20.853Z,32.03
2023-12-18T01:02:51.016Z,30.87
2023-12-18T01:05:19.876Z,30.87
2023-12-18T01:07:48.701Z,29.63
2023-12-18T01:10:17.520Z,26.60
2023-12-18T01:12:47.554Z,28.10
2023-12-18T01:15:16.255Z,28.27
2023-12-18T01:17:45.324Z,34.70
2023-12-18T01:20:15.723Z,29.87
2023-12-18T01:22:46.823Z,27.87
2023-12-18T01:25:15.711Z,32.50
2023-12-18T01:27:44.699Z,32.80
2023-12-18T01:30:14.975Z,32.10
2023-12-18T01:32:45.294Z,26.43
2023-12-18T01:35:15.337Z,32.27
2023-12-18T01:37:44.298Z,33.80
2023-12-18T01:40:14.242Z,31.43
2023-12-18T01:42:46.900Z,30.10
2023-12-18T01:45:15.835Z,32.70
2023-12-18T01:47:44.891Z,27.90
2023-12-18T01:50:15.278Z,28.17
2023-12-18T01:52:44.048Z,27.03
2023-12-18T01:55:15.573Z,30.00
2023-12-18T01:57:44.443Z,31.73
2023-12-18T02:00:15.500Z,24.87
2023-12-18T02:02:44.159Z,27.10
2023-12-18T02:05:12.787Z,24.37
2023-12-18T02:07:43.138Z,33.03
2023-12-18T02:10:12.262Z,31.63
2023-12-18T02:12:40.988Z,27.13
2023-12-18T02:15:10.290Z,24.63
2023-12-18T02:17:39.301Z,28.40
2023-12-18T02:20:09.043Z,24.77
2023-12-18T02:22:47.175Z,28.27
2023-12-18T02:25:18.494Z,27.13
2023-12-18T02:27:47.999Z,24.50
2023-12-18T02:30:17.681Z,23.53
2023-12-18T02:32:46.719Z,32.10
2023-12-18T02:35:15.533Z,26.70
2023-12-18T02:37:45.587Z,32.03
2023-12-18T02:40:14.531Z,25.90
2023-12-18T02:42:43.171Z,28.97
2023-12-18T02:45:12.433Z,29.37
2023-12-18T02:47:41.378Z,29.63
2023-12-18T02:50:10.919Z,28.23
2023-12-18T02:52:39.680Z,17.90
2023-12-18T02:55:12.460Z,32.50
2023-12-18T02:57:42.091Z,26.67
2023-12-18T03:00:11.658Z,26.03
2023-12-18T03:02:40.861Z,24.60
2023-12-18T03:05:10.106Z,25.43
2023-12-18T03:07:38.969Z,31.90
2023-12-18T03:10:10.037Z,23.67
2023-12-18T03:12:38.789Z,22.77
2023-12-18T03:15:08.971Z,19.57
2023-12-18T03:17:37.741Z,30.03
2023-12-18T03:20:07.822Z,32.97
2023-12-18T03:22:36.519Z,21.80
2023-12-18T03:25:06.345Z,31.47
2023-12-18T03:27:37.629Z,27.67
2023-12-18T03:32:36.278Z,28.10
2023-12-18T03:35:05.063Z,24.00
2023-12-18T03:37:35.912Z,26.73
2023-12-18T03:40:04.672Z,27.03
2023-12-18T03:42:33.349Z,25.63
2023-12-18T03:45:03.487Z,28.77
2023-12-18T03:47:32.156Z,30.27
2023-12-18T03:50:01.031Z,26.80
2023-12-18T03:52:32.656Z,26.43
2023-12-18T03:55:02.449Z,30.70
2023-12-18T03:57:31.120Z,24.70
2023-12-18T04:00:00.127Z,27.47
2023-12-18T04:02:30.457Z,25.93
2023-12-18T04:04:59.197Z,26.80
2023-12-18T04:07:27.917Z,26.30
2023-12-18T04:09:56.557Z,29.43
2023-12-18T04:12:25.196Z,27.07
2023-12-18T04:14:53.810Z,28.07
2023-12-18T04:17:22.825Z,27.13
2023-12-18T04:19:52.884Z,35.63
2023-12-18T04:22:21.633Z,23.37
2023-12-18T04:24:50.387Z,28.50
2023-12-18T04:27:19.200Z,28.27
2023-12-18T04:29:46.920Z,34.33
2023-12-18T04:32:15.657Z,25.97
2023-12-18T04:34:45.514Z,29.00
2023-12-18T04:37:15.583Z,27.87
2023-12-18T04:39:45.622Z,35.93
2023-12-18T04:42:14.333Z,35.60
2023-12-18T04:44:42.992Z,32.27
2023-12-18T04:47:11.697Z,28.87
2023-12-18T04:49:40.981Z,29.57
2023-12-18T04:52:09.686Z,26.70
2023-12-18T04:54:39.773Z,29.30
2023-12-18T04:57:08.473Z,32.47
2023-12-18T04:59:37.112Z,28.10
2023-12-18T05:02:05.994Z,29.67
2023-12-18T05:04:35.052Z,22.60
2023-12-18T05:07:03.804Z,31.13
2023-12-18T05:09:32.675Z,28.90
2023-12-18T05:12:02.715Z,27.17
2023-12-18T05:14:31.401Z,44.07
2023-12-18T05:17:00.509Z,36.30
2023-12-18T05:19:29.373Z,32.33
2023-12-18T05:21:58.019Z,28.90
2023-12-18T05:24:26.675Z,28.80
2023-12-18T05:26:55.698Z,28.43
2023-12-18T05:29:25.746Z,30.70
2023-12-18T05:31:54.418Z,36.40
2023-12-18T05:34:23.208Z,28.10
2023-12-18T05:36:51.980Z,28.43
2023-12-18T05:39:20.676Z,29.70
2023-12-18T05:41:49.394Z,28.63
2023-12-18T05:44:18.153Z,32.27
2023-12-18T05:46:48.209Z,33.73
2023-12-18T05:49:17.302Z,29.43
2023-12-18T05:51:46.221Z,29.93
2023-12-18T05:54:14.945Z,34.50
2023-12-18T05:56:43.601Z,28.27
2023-12-18T05:59:12.295Z,29.37
2023-12-18T06:01:40.935Z,35.83
2023-12-18T06:04:11.273Z,28.50
2023-12-18T06:06:40.043Z,33.40
2023-12-18T06:09:08.954Z,28.93
2023-12-18T06:11:37.701Z,30.67
2023-12-18T06:14:06.323Z,29.13
2023-12-18T06:16:36.044Z,36.13
2023-12-18T06:19:04.733Z,31.47
2023-12-18T06:21:39.853Z,30.93
2023-12-18T06:24:08.842Z,33.03
2023-12-18T06:26:37.631Z,41.00
2023-12-18T06:29:06.339Z,37.93
2023-12-18T06:31:35.881Z,34.13
2023-12-18T06:34:05.663Z,34.77
2023-12-18T06:36:34.879Z,27.93
2023-12-18T06:39:04.628Z,32.60
2023-12-18T06:41:33.283Z,31.37
2023-12-18T06:44:01.991Z,33.07
2023-12-18T06:46:31.612Z,32.57
2023-12-18T06:49:03.962Z,35.20
2023-12-18T06:51:32.893Z,38.37
2023-12-18T06:54:02.859Z,35.93
2023-12-18T06:56:31.466Z,33.40
2023-12-18T06:59:00.397Z,31.70
2023-12-18T07:01:29.068Z,34.13
2023-12-18T07:03:58.745Z,37.97
2023-12-18T07:06:27.714Z,37.57
2023-12-18T07:08:56.371Z,44.83
2023-12-18T07:11:26.665Z,29.93
2023-12-18T07:13:55.409Z,38.23
2023-12-18T07:16:24.793Z,39.60
2023-12-18T07:18:53.568Z,37.20
2023-12-18T07:21:22.420Z,33.83
2023-12-18T07:23:51.413Z,33.30
2023-12-18T07:26:20.214Z,38.17
2023-12-18T07:28:50.323Z,34.43
2023-12-18T07:31:19.601Z,38.27
2023-12-18T07:33:48.701Z,32.23
2023-12-18T07:36:17.571Z,29.63
2023-12-18T07:38:48.037Z,32.80
2023-12-18T07:41:16.836Z,31.53
2023-12-18T07:43:46.303Z,39.27
2023-12-18T07:46:23.512Z,32.93
2023-12-18T07:48:52.383Z,32.37
2023-12-18T07:51:21.398Z,32.87
2023-12-18T07:53:50.572Z,31.73
2023-12-18T07:56:19.269Z,34.87
2023-12-18T07:58:48.007Z,31.87
2023-12-18T08:01:20.984Z,35.93
2023-12-18T08:03:51.979Z,32.60
2023-12-18T08:06:20.859Z,31.53
2023-12-18T08:08:49.528Z,33.47
2023-12-18T08:11:18.285Z,41.10
2023-12-18T08:13:49.944Z,33.43
2023-12-18T08:16:19.904Z,37.67
2023-12-18T08:18:49.264Z,33.27
2023-12-18T08:21:19.653Z,39.77
2023-12-18T08:23:51.546Z,32.43
2023-12-18T08:26:20.467Z,34.83
2023-12-18T08:28:51.886Z,30.53
2023-12-18T08:31:24.836Z,35.93
2023-12-18T08:34:02.589Z,30.07
2023-12-18T08:36:35.453Z,29.23
2023-12-18T08:39:04.274Z,33.73
2023-12-18T08:41:34.170Z,33.23
2023-12-18T08:44:05.761Z,32.07
2023-12-18T08:46:34.992Z,33.80
2023-12-18T08:49:03.781Z,32.03
2023-12-18T08:51:33.842Z,33.03
2023-12-18T08:54:06.135Z,36.47
2023-12-18T08:56:34.979Z,37.63
2023-12-18T08:59:03.837Z,36.17
2023-12-18T09:01:32.489Z,28.80
2023-12-18T09:04:01.366Z,37.17
2023-12-18T09:06:30.289Z,34.60
2023-12-18T09:09:00.595Z,34.93
2023-12-18T09:11:31.193Z,30.67
2023-12-18T09:14:00.092Z,35.70
2023-12-18T09:16:28.982Z,31.73
2023-12-18T09:18:57.998Z,28.00
2023-12-18T09:21:26.776Z,28.77
2023-12-18T09:23:55.443Z,32.93
2023-12-18T09:26:25.596Z,33.20
2023-12-18T09:28:54.324Z,34.77
2023-12-18T09:31:23.157Z,29.67
2023-12-18T09:33:52.025Z,32.03
2023-12-18T09:36:20.684Z,32.37
2023-12-18T09:38:49.368Z,34.57
2023-12-18T09:41:25.142Z,33.10
2023-12-18T09:43:54.405Z,28.47
2023-12-18T09:46:24.916Z,23.17
2023-12-18T09:48:54.762Z,33.80
2023-12-18T09:51:25.257Z,32.90
2023-12-18T09:53:55.663Z,32.23
2023-12-18T09:56:26.320Z,26.90
2023-12-18T09:58:56.295Z,30.03
2023-12-18T10:01:25.735Z,29.93
2023-12-18T10:03:54.521Z,32.37
2023-12-18T10:06:23.653Z,28.27
2023-12-18T10:08:52.645Z,32.03
2023-12-18T10:11:28.405Z,26.77
2023-12-18T10:13:57.873Z,39.00
2023-12-18T10:16:26.585Z,31.33
2023-12-18T10:18:55.693Z,28.23
2023-12-18T10:21:25.490Z,34.40
2023-12-18T10:23:54.874Z,27.53
2023-12-18T10:26:25.417Z,27.57
2023-12-18T10:28:54.706Z,26.67
2023-12-18T10:31:23.984Z,30.43
2023-12-18T10:33:53.618Z,23.50
2023-12-18T10:36:24.993Z,28.73
2023-12-18T10:38:53.663Z,32.17
2023-12-18T10:41:24.091Z,27.50
2023-12-18T10:43:55.151Z,30.73
2023-12-18T10:46:26.021Z,27.37
2023-12-18T10:48:55.748Z,30.20
2023-12-18T10:51:25.639Z,27.17
2023-12-18T10:53:55.701Z,26.40
2023-12-18T10:56:25.141Z,30.63
2023-12-18T10:58:58.778Z,27.67
2023-12-18T11:01:31.370Z,31.00
2023-12-18T11:04:01.067Z,29.27
2023-12-18T11:06:30.946Z,28.60
2023-12-18T11:09:02.654Z,29.83
2023-12-18T11:11:32.853Z,31.73
2023-12-18T11:14:21.456Z,31.47
2023-12-18T11:17:03.749Z,28.47
2023-12-18T11:19:39.896Z,27.43
2023-12-18T11:22:08.669Z,31.17
2023-12-18T11:24:38.592Z,37.30
2023-12-18T11:27:08.615Z,30.57
2023-12-18T11:29:50.729Z,31.03
2023-12-18T11:32:47.266Z,29.33
2023-12-18T11:35:17.567Z,32.13
2023-12-18T11:37:51.702Z,30.43
2023-12-18T11:40:37.628Z,25.93
2023-12-18T11:43:07.717Z,26.90
2023-12-18T11:45:43.486Z,31.53
2023-12-18T11:48:17.711Z,32.77
2023-12-18T11:50:47.157Z,33.07
2023-12-18T11:53:34.216Z,34.40
2023-12-18T11:56:08.936Z,31.60
2023-12-18T11:58:38.761Z,33.27
2023-12-18T12:01:08.776Z,33.60
2023-12-18T12:03:39.145Z,31.23
2023-12-18T12:06:08.963Z,31.47
2023-12-18T12:08:44.816Z,30.63
2023-12-18T12:11:13.666Z,29.03
2023-12-18T12:13:42.319Z,28.87
2023-12-18T12:16:12.333Z,30.60
2023-12-18T12:18:47.767Z,25.13
2023-12-18T12:21:18.430Z,30.97
2023-12-18T12:23:48.207Z,39.60
2023-12-18T12:26:19.349Z,34.80
2023-12-18T12:28:49.779Z,29.13
2023-12-18T12:31:21.411Z,30.83
2023-12-18T12:33:52.020Z,30.57
2023-12-18T12:36:23.453Z,25.80
2023-12-18T12:38:55.780Z,29.63
2023-12-18T12:41:24.614Z,24.13
2023-12-18T12:43:53.440Z,31.47
2023-12-18T12:46:32.667Z,31.37
2023-12-18T12:49:04.488Z,24.60
2023-12-18T12:51:34.344Z,22.50
2023-12-18T12:54:03.027Z,33.30
2023-12-18T12:56:31.743Z,28.20
2023-12-18T12:59:00.574Z,30.80
2023-12-18T13:01:31.173Z,30.30
2023-12-18T13:04:03.168Z,29.03
2023-12-18T13:06:32.116Z,33.27
2023-12-18T13:09:00.879Z,25.60
2023-12-18T13:11:32.304Z,27.17
2023-12-18T13:14:08.921Z,26.93
2023-12-18T13:16:45.119Z,23.40
2023-12-18T13:19:14.327Z,25.87
2023-12-18T13:21:43.591Z,29.97
2023-12-18T13:24:12.272Z,30.73
2023-12-18T13:26:41.091Z,29.83
2023-12-18T13:29:09.857Z,24.53
2023-12-18T13:31:39.176Z,26.30
2023-12-18T13:34:09.543Z,26.87
2023-12-18T13:36:38.410Z,29.87
2023-12-18T13:39:07.277Z,28.37
2023-12-18T13:41:36.916Z,29.83
2023-12-18T13:44:06.657Z,28.57
2023-12-18T13:46:35.442Z,32.83
2023-12-18T13:49:04.298Z,28.63
2023-12-18T13:51:34.505Z,24.33
2023-12-18T13:54:03.295Z,35.13
2023-12-18T13:56:32.089Z,29.13
2023-12-18T13:59:02.875Z,28.73
2023-12-18T14:01:32.283Z,30.70
2023-12-18T14:04:01.275Z,26.87
2023-12-18T14:06:30.236Z,27.37
2023-12-18T14:09:04.603Z,30.60
2023-12-18T14:11:33.452Z,27.77
2023-12-18T14:14:02.101Z,33.93
2023-12-18T14:16:30.724Z,26.47
2023-12-18T14:19:02.228Z,30.73
2023-12-18T14:21:33.000Z,27.90
2023-12-18T14:24:03.237Z,27.33
2023-12-18T14:26:31.971Z,25.87
2023-12-18T14:29:00.761Z,27.80
2023-12-18T14:31:33.603Z,27.73
2023-12-18T14:34:02.537Z,34.07
2023-12-18T14:36:31.429Z,28.57
2023-12-18T14:39:02.393Z,26.27
2023-12-18T14:41:31.061Z,28.90
2023-12-18T14:44:02.855Z,33.70
2023-12-18T14:46:31.649Z,29.87
2023-12-18T14:49:03.123Z,25.90
2023-12-18T14:51:31.965Z,35.53
2023-12-18T14:54:04.254Z,27.33
2023-12-18T14:56:39.004Z,34.77
2023-12-18T14:59:08.739Z,28.70
2023-12-18T15:01:38.455Z,25.83
2023-12-18T15:04:13.037Z,29.13
2023-12-18T15:06:45.152Z,30.97
2023-12-18T15:09:15.756Z,33.83
2023-12-18T15:11:44.674Z,29.63
2023-12-18T15:14:13.890Z,45.00
2023-12-18T15:16:43.064Z,31.07
2023-12-18T15:19:12.616Z,36.03
2023-12-18T15:21:41.656Z,30.25
2023-12-18T15:24:11.100Z,32.90
2023-12-18T15:26:55.459Z,36.00
2023-12-18T15:29:54.574Z,28.37
2023-12-18T15:32:20.883Z,27.27
2023-12-18T15:34:50.249Z,34.30
2023-12-18T15:37:19.039Z,34.47
2023-12-18T15:39:48.443Z,31.07
2023-12-18T15:42:18.525Z,44.93
2023-12-18T15:44:50.624Z,28.70
2023-12-18T15:47:19.382Z,31.03
2023-12-18T15:49:48.321Z,31.33
2023-12-18T15:52:18.459Z,30.50
2023-12-18T15:55:00.831Z,34.00
2023-12-18T15:58:06.820Z,27.53
2023-12-18T16:00:35.971Z,39.25
2023-12-18T16:03:14.249Z,33.30
2023-12-18T16:05:43.415Z,35.83
2023-12-18T16:08:37.055Z,35.37
2023-12-18T16:11:14.289Z,32.77
2023-12-18T16:13:44.416Z,31.93
2023-12-18T16:16:18.782Z,34.93
2023-12-18T16:22:25.575Z,37.13
2023-12-18T16:24:54.220Z,34.20
2023-12-18T16:27:22.985Z,28.63
2023-12-18T16:29:54.983Z,34.40
2023-12-18T16:32:23.789Z,32.70
2023-12-18T16:34:52.620Z,35.23
2023-12-18T16:37:22.530Z,41.10
2023-12-18T16:39:51.312Z,34.60
2023-12-18T16:42:19.938Z,36.83
2023-12-18T16:44:48.803Z,31.17
2023-12-18T16:47:19.634Z,43.23
2023-12-18T16:49:50.869Z,30.67
2023-12-18T16:52:19.739Z,36.53
2023-12-18T16:54:48.463Z,30.97
2023-12-18T16:57:17.123Z,34.97
2023-12-18T16:59:45.853Z,34.30
2023-12-18T17:02:16.284Z,38.00
2023-12-18T17:04:47.025Z,30.93
2023-12-18T17:07:15.853Z,43.73
2023-12-18T17:09:45.082Z,31.57
2023-12-18T17:12:14.091Z,34.87
2023-12-18T17:14:42.655Z,41.83
2023-12-18T17:17:11.393Z,31.93
2023-12-18T17:19:40.307Z,38.00
2023-12-18T17:22:10.425Z,39.53
2023-12-18T17:24:39.095Z,34.37
2023-12-18T17:27:08.415Z,34.37
2023-12-18T17:29:37.050Z,41.33
2023-12-18T17:32:06.224Z,32.83
2023-12-18T17:34:35.237Z,32.60
2023-12-18T17:37:05.015Z,34.43
2023-12-18T17:39:35.072Z,41.03
2023-12-18T17:42:05.766Z,34.90
2023-12-18T17:44:34.419Z,35.03
2023-12-18T17:47:04.016Z,31.13
2023-12-18T17:49:34.995Z,35.23
2023-12-18T17:52:03.737Z,40.17
2023-12-18T17:54:32.417Z,37.50
2023-12-18T17:57:04.663Z,30.83
2023-12-18T17:59:33.368Z,32.87
2023-12-18T18:02:02.076Z,34.07
2023-12-18T18:04:30.900Z,35.77
2023-12-18T18:06:59.964Z,40.37
2023-12-18T18:09:28.881Z,38.97
2023-12-18T18:11:57.660Z,42.40
2023-12-18T18:14:27.771Z,35.40
2023-12-18T18:16:56.435Z,45.50
2023-12-18T18:19:25.116Z,37.47
2023-12-18T18:21:54.104Z,35.07
2023-12-18T18:24:22.984Z,37.87
2023-12-18T18:26:52.004Z,33.70
2023-12-18T18:29:38.204Z,39.27
2023-12-18T18:32:10.601Z,42.97
2023-12-18T18:34:40.863Z,36.23
2023-12-18T18:37:09.638Z,34.27
2023-12-18T18:39:38.367Z,37.00
2023-12-18T18:42:07.653Z,39.63
2023-12-18T18:44:37.612Z,36.40
2023-12-18T18:47:06.891Z,49.30
2023-12-18T18:49:35.634Z,36.80
2023-12-18T18:52:06.247Z,40.60
2023-12-18T18:54:35.084Z,40.67
2023-12-18T18:57:03.756Z,45.13
2023-12-18T18:59:35.175Z,39.40
2023-12-18T19:02:05.662Z,36.30
2023-12-18T19:04:34.447Z,46.58
2023-12-18T19:07:03.292Z,45.00
2023-12-18T19:09:32.026Z,35.67
2023-12-18T19:12:00.769Z,35.70
2023-12-18T19:14:29.432Z,41.20
2023-12-18T19:16:58.727Z,44.30
2023-12-18T19:19:29.000Z,46.77
2023-12-18T19:21:58.004Z,38.17
2023-12-18T19:24:26.794Z,37.00
2023-12-18T19:26:55.701Z,49.70
2023-12-18T19:29:24.350Z,43.50
2023-12-18T19:31:53.099Z,38.10
2023-12-18T19:34:21.913Z,36.03
2023-12-18T19:36:52.068Z,38.23
2023-12-18T19:39:20.757Z,46.77
2023-12-18T19:41:49.527Z,39.10
2023-12-18T19:44:19.574Z,51.17
2023-12-18T19:46:50.650Z,37.80
2023-12-18T19:49:21.877Z,44.40
2023-12-18T19:51:52.389Z,41.83
2023-12-18T19:54:21.155Z,50.87
2023-12-18T19:56:50.005Z,46.10
2023-12-18T19:59:19.074Z,53.43
2023-12-18T20:01:47.967Z,35.50
2023-12-18T20:04:17.185Z,47.87
2023-12-18T20:06:47.364Z,41.27
2023-12-18T20:09:18.246Z,45.00
2023-12-18T20:11:47.156Z,55.00
2023-12-18T20:14:15.822Z,42.33
2023-12-18T20:16:44.405Z,41.53
2023-12-18T20:19:13.313Z,40.73
2023-12-18T20:21:42.158Z,36.00
2023-12-18T20:24:12.468Z,49.07
2023-12-18T20:26:45.219Z,41.13
2023-12-18T20:29:16.451Z,45.67
2023-12-18T20:31:45.286Z,42.70
2023-12-18T20:34:14.097Z,44.77
2023-12-18T20:36:42.953Z,37.37
2023-12-18T20:39:15.937Z,47.53
2023-12-18T20:41:46.263Z,54.97
2023-12-18T20:44:15.455Z,35.67
2023-12-18T20:46:44.547Z,44.03
2023-12-18T20:49:16.582Z,44.37
2023-12-18T20:51:48.297Z,39.73
2023-12-18T20:54:17.231Z,42.37
2023-12-18T20:56:47.327Z,40.13
2023-12-18T20:59:15.965Z,45.90
2023-12-18T21:01:46.402Z,50.40
2023-12-18T21:04:15.379Z,41.00
2023-12-18T21:06:44.243Z,38.73
2023-12-18T21:09:13.624Z,36.97
2023-12-18T21:11:42.376Z,44.87
2023-12-18T21:14:22.661Z,40.70
2023-12-18T21:16:58.861Z,43.70
2023-12-18T21:19:27.642Z,52.70
2023-12-18T21:22:04.068Z,42.97
2023-12-18T21:24:34.594Z,42.07
2023-12-18T21:27:03.360Z,41.57
2023-12-18T21:29:33.488Z,43.70
2023-12-18T21:32:02.296Z,44.60
2023-12-18T21:34:33.522Z,40.50
2023-12-18T21:37:02.437Z,41.80
2023-12-18T21:39:31.484Z,44.20
2023-12-18T21:42:05.944Z,47.20
2023-12-18T21:44:35.969Z,48.20
2023-12-18T21:47:05.340Z,49.73
2023-12-18T21:49:37.698Z,45.07
2023-12-18T21:52:07.911Z,45.30
2023-12-18T21:54:36.655Z,37.87
2023-12-18T21:57:06.190Z,50.03
2023-12-18T21:59:36.208Z,42.13
2023-12-18T22:02:05.339Z,51.57
2023-12-18T22:04:34.384Z,43.30
2023-12-18T22:07:03.229Z,44.67
2023-12-18T22:09:31.974Z,48.00
2023-12-18T22:12:03.479Z,43.83
2023-12-18T22:14:32.263Z,43.77
2023-12-18T22:17:02.268Z,49.73
2023-12-18T22:19:31.061Z,39.67
2023-12-18T22:22:04.161Z,43.13
2023-12-18T22:24:32.848Z,44.00
2023-12-18T22:27:03.427Z,42.37
2023-12-18T22:29:32.176Z,43.47
2023-12-18T22:32:04.074Z,41.33
2023-12-18T22:34:33.863Z,47.50
2023-12-18T22:37:02.694Z,37.97
2023-12-18T22:39:31.412Z,45.90
2023-12-18T22:42:00.276Z,48.33
2023-12-18T22:44:29.073Z,38.43
2023-12-18T22:46:57.815Z,39.33
2023-12-18T22:49:28.033Z,48.07
2023-12-18T22:51:56.994Z,47.60
2023-12-18T22:54:25.681Z,45.03
2023-12-18T22:56:54.328Z,40.37
2023-12-18T22:59:23.254Z,48.40
2023-12-18T23:01:52.028Z,60.70
2023-12-18T23:04:20.814Z,42.13
2023-12-18T23:06:51.209Z,42.37
2023-12-18T23:09:20.405Z,42.50
2023-12-18T23:11:49.873Z,40.70
2023-12-18T23:14:18.559Z,43.77
2023-12-18T23:16:47.145Z,42.03
2023-12-18T23:19:15.853Z,51.10
2023-12-18T23:21:44.759Z,42.13
2023-12-18T23:24:14.789Z,45.83
2023-12-18T23:26:43.513Z,39.80
2023-12-18T23:29:12.296Z,40.97
2023-12-18T23:31:41.067Z,50.20
2023-12-18T23:34:09.936Z,38.57
2023-12-18T23:36:41.419Z,39.83
2023-12-18T23:39:10.137Z,42.27
2023-12-18T23:41:40.205Z,42.60
2023-12-18T23:44:09.035Z,44.73
2023-12-18T23:46:37.707Z,39.03
2023-12-18T23:49:06.377Z,38.77
2023-12-18T23:51:36.203Z,37.50
2023-12-18T23:54:05.023Z,39.30
2023-12-18T23:56:33.652Z,40.33
2023-12-18T23:59:03.711Z,41.43
